Time;durP1;ratioP1;P1;durP2;ratioP2;P2;SDS_P1;SDS_P2;PMS_P1;PMS_P2;Temp;Humidity;BMP_temperature;BMP_pressure;BME280_temperature;BME280_humidity;BME280_pressure;Samples;Min_cycle;Max_cycle;Signal;HPM_P1;HPM_P2
2022/04/04 00:00:51;;;;;;;13.85;6.00;;;-3.20;99.90;;;;;;4970207;28;20031;-57
2022/04/04 00:03:16;;;;;;;8.32;5.40;;;-3.20;99.90;;;;;;4970591;28;20053;-56
2022/04/04 00:05:42;;;;;;;8.23;5.82;;;-3.20;99.90;;;;;;4970383;28;20026;-56
2022/04/04 00:08:08;;;;;;;6.78;5.40;;;-3.10;99.90;;;;;;4969777;28;20430;-57
2022/04/04 00:10:34;;;;;;;6.10;4.47;;;-3.10;99.90;;;;;;4977421;28;20030;-56
2022/04/04 00:13:00;;;;;;;6.30;5.50;;;-3.10;99.90;;;;;;4988778;28;20030;-56
2022/04/04 00:15:26;;;;;;;6.97;5.47;;;-3.00;99.90;;;;;;4989849;28;20044;-56
2022/04/04 00:17:51;;;;;;;8.13;5.72;;;-3.00;99.90;;;;;;4989643;28;20117;-56
2022/04/04 00:20:17;;;;;;;10.68;5.32;;;-2.90;99.90;;;;;;4989020;28;20157;-56
2022/04/04 00:22:44;;;;;;;8.45;5.90;;;-2.90;99.90;;;;;;4988992;28;20034;-56
2022/04/04 00:25:10;;;;;;;6.55;5.70;;;-2.90;99.90;;;;;;4988478;28;20563;-56
2022/04/04 00:27:36;;;;;;;6.63;5.82;;;-2.90;99.90;;;;;;4988950;28;20161;-56
2022/04/04 00:30:03;;;;;;;7.28;6.28;;;-2.90;99.90;;;;;;4989332;28;20030;-56
2022/04/04 00:32:29;;;;;;;7.00;6.30;;;-2.90;99.90;;;;;;4972380;28;20038;-56
2022/04/04 00:34:55;;;;;;;8.65;6.10;;;-2.90;99.90;;;;;;4980076;28;20031;-57
2022/04/04 00:37:21;;;;;;;8.77;6.10;;;-2.90;99.90;;;;;;4981673;28;20019;-57
2022/04/04 00:39:46;;;;;;;9.88;6.93;;;-2.80;99.90;;;;;;4985665;28;20620;-57
2022/04/04 00:42:16;;;;;;;8.15;6.95;;;-2.80;99.90;;;;;;4991692;28;20027;-57
2022/04/04 00:44:42;;;;;;;7.78;6.53;;;-2.80;99.90;;;;;;4993173;28;20018;-55
2022/04/04 00:47:08;;;;;;;9.35;5.75;;;-2.70;99.90;;;;;;4993424;28;20026;-55
2022/04/04 00:49:34;;;;;;;9.48;6.07;;;-2.70;99.90;;;;;;4992708;28;20018;-56
2022/04/04 00:52:00;;;;;;;7.78;5.72;;;-2.70;99.90;;;;;;4990492;28;20501;-56
2022/04/04 00:54:26;;;;;;;7.55;5.63;;;-2.70;99.90;;;;;;4993484;28;20018;-56
2022/04/04 00:56:52;;;;;;;7.18;4.75;;;-2.70;99.90;;;;;;4993487;28;20572;-57
2022/04/04 00:59:21;;;;;;;7.40;5.88;;;-2.60;99.90;;;;;;4992580;28;20054;-56
2022/04/04 01:01:47;;;;;;;6.60;5.20;;;-2.60;99.90;;;;;;4992796;28;20034;-56
2022/04/04 01:04:13;;;;;;;6.20;5.60;;;-2.60;99.90;;;;;;4993064;28;20114;-55
2022/04/04 01:06:39;;;;;;;10.32;5.50;;;-2.60;99.90;;;;;;4992813;28;20381;-56
2022/04/04 01:09:05;;;;;;;5.97;5.38;;;-2.50;99.90;;;;;;4993385;28;20383;-56
2022/04/04 01:11:31;;;;;;;9.75;5.30;;;-2.50;99.90;;;;;;4992115;28;20037;-57
2022/04/04 01:13:57;;;;;;;10.35;6.18;;;-2.50;99.90;;;;;;4991614;28;20032;-56
2022/04/04 01:16:23;;;;;;;6.63;5.18;;;-2.50;99.90;;;;;;4992970;28;20026;-57
2022/04/04 01:18:48;;;;;;;5.78;4.82;;;-2.50;99.90;;;;;;4992126;28;20130;-55
2022/04/04 01:21:19;;;;;;;5.65;4.90;;;-2.50;99.90;;;;;;4992382;28;20453;-56
2022/04/04 01:23:44;;;;;;;6.32;4.85;;;-2.50;99.90;;;;;;4992303;28;20026;-56
2022/04/04 01:26:13;;;;;;;6.57;5.25;;;-2.40;99.90;;;;;;4993091;28;20126;-57
2022/04/04 01:28:39;;;;;;;8.10;5.40;;;-2.40;99.90;;;;;;4992426;28;20093;-58
2022/04/04 01:31:05;;;;;;;8.43;5.32;;;-2.40;99.90;;;;;;4991639;28;20117;-57
2022/04/04 01:33:32;;;;;;;7.53;5.13;;;-2.30;99.90;;;;;;4992717;28;20106;-58
2022/04/04 01:35:58;;;;;;;6.15;4.68;;;-2.30;99.90;;;;;;4992181;28;20081;-56
2022/04/04 01:38:24;;;;;;;7.22;4.70;;;-2.30;99.90;;;;;;4992187;28;20439;-56
2022/04/04 01:40:50;;;;;;;9.23;4.63;;;-2.30;99.90;;;;;;4991814;28;20057;-56
2022/04/04 01:43:16;;;;;;;7.13;5.35;;;-2.30;99.90;;;;;;4992260;28;20568;-58
2022/04/04 01:48:26;;;;;;;11.18;5.10;;;-2.20;99.90;;;;;;4993072;28;20489;-57
2022/04/04 01:50:52;;;;;;;6.38;4.53;;;-2.20;99.90;;;;;;4991992;28;20054;-57
2022/04/04 01:53:27;;;;;;;6.22;4.97;;;-2.20;99.90;;;;;;4991415;28;20031;-57
2022/04/04 01:55:54;;;;;;;5.25;4.53;;;-2.20;99.90;;;;;;4991878;28;20039;-58
2022/04/04 01:58:20;;;;;;;5.43;4.15;;;-2.20;99.90;;;;;;4985774;28;20122;-57
2022/04/04 02:00:46;;;;;;;6.03;4.68;;;-2.20;99.90;;;;;;4972417;28;20139;-58
2022/04/04 02:03:11;;;;;;;5.22;4.55;;;-2.20;99.90;;;;;;4972310;28;20097;-58
2022/04/04 02:05:38;;;;;;;7.43;4.78;;;-2.20;99.90;;;;;;4972805;28;20023;-57
2022/04/04 02:08:04;;;;;;;6.00;4.18;;;-2.20;99.90;;;;;;4984107;28;20042;-58
2022/04/04 02:10:29;;;;;;;6.97;4.22;;;-2.20;99.90;;;;;;4990846;28;20037;-56
2022/04/04 02:12:55;;;;;;;7.32;4.85;;;-2.20;99.90;;;;;;4991630;28;20027;-57
2022/04/04 02:15:21;;;;;;;5.45;4.43;;;-2.30;99.90;;;;;;4991710;28;20033;-58
2022/04/04 02:17:47;;;;;;;8.20;3.47;;;-2.30;99.90;;;;;;4991118;28;20026;-58
2022/04/04 02:20:14;;;;;;;4.30;3.35;;;-2.30;99.90;;;;;;4991433;28;20034;-58
2022/04/04 02:22:40;;;;;;;5.78;4.38;;;-2.30;99.90;;;;;;4991418;28;20579;-58
2022/04/04 02:25:06;;;;;;;6.20;4.65;;;-2.30;99.90;;;;;;4991751;28;20398;-58
2022/04/04 02:27:32;;;;;;;5.10;4.20;;;-2.40;99.90;;;;;;4991751;28;20041;-57
2022/04/04 02:29:57;;;;;;;6.35;4.45;;;-2.40;99.90;;;;;;4991096;28;20026;-58
2022/04/04 02:32:23;;;;;;;8.80;4.90;;;-2.50;99.90;;;;;;4990647;28;20027;-58
2022/04/04 02:34:50;;;;;;;7.03;4.22;;;-2.50;99.90;;;;;;4991064;28;20026;-59
2022/04/04 02:37:16;;;;;;;5.78;4.78;;;-2.50;99.90;;;;;;4989214;28;20541;-56
2022/04/04 02:39:42;;;;;;;4.80;4.05;;;-2.50;99.90;;;;;;4991175;28;20061;-58
2022/04/04 02:42:08;;;;;;;7.75;4.90;;;-2.50;99.90;;;;;;4991251;28;20466;-58
2022/04/04 02:44:34;;;;;;;4.70;3.63;;;-2.50;99.90;;;;;;4990492;28;20474;-56
2022/04/04 02:47:00;;;;;;;7.53;3.85;;;-2.40;99.90;;;;;;4991167;28;20034;-58
2022/04/04 02:49:28;;;;;;;5.00;4.10;;;-2.40;99.90;;;;;;4990702;28;20068;-56
2022/04/04 02:51:55;;;;;;;6.53;3.13;;;-2.40;99.90;;;;;;4990749;28;20030;-57
2022/04/04 02:54:20;;;;;;;4.32;3.55;;;-2.40;99.90;;;;;;4991498;28;20026;-57
2022/04/04 02:56:46;;;;;;;5.45;3.95;;;-2.40;99.90;;;;;;4990902;28;20038;-56
2022/04/04 02:59:12;;;;;;;5.82;3.67;;;-2.50;99.90;;;;;;4990799;28;20042;-56
2022/04/04 03:01:38;;;;;;;8.80;5.97;;;-2.50;99.90;;;;;;4990249;28;20040;-57
2022/04/04 03:04:05;;;;;;;10.02;3.63;;;-2.60;99.90;;;;;;4990776;28;20121;-58
2022/04/04 03:06:30;;;;;;;5.55;4.38;;;-2.60;99.90;;;;;;4991091;28;20023;-58
2022/04/04 03:08:56;;;;;;;6.18;4.05;;;-2.60;99.90;;;;;;4990934;28;20027;-56
2022/04/04 03:11:22;;;;;;;5.78;3.92;;;-2.60;99.90;;;;;;4990238;28;20042;-57
2022/04/04 03:13:48;;;;;;;5.35;4.72;;;-2.70;99.90;;;;;;4989842;28;20030;-58
2022/04/04 03:16:14;;;;;;;5.15;4.65;;;-2.70;99.90;;;;;;4991261;28;20026;-59
2022/04/04 03:18:40;;;;;;;5.78;4.13;;;-2.70;99.90;;;;;;4990463;28;20045;-58
2022/04/04 03:21:06;;;;;;;5.68;3.42;;;-2.80;99.90;;;;;;4991003;28;20022;-59
2022/04/04 03:23:33;;;;;;;5.40;4.50;;;-2.80;99.90;;;;;;4990056;28;20505;-59
2022/04/04 03:25:59;;;;;;;7.55;4.45;;;-2.70;99.90;;;;;;4990264;28;20437;-58
2022/04/04 03:28:25;;;;;;;5.95;4.60;;;-2.70;99.90;;;;;;4990350;28;20037;-57
2022/04/04 03:30:52;;;;;;;7.07;4.13;;;-2.70;99.90;;;;;;4989829;28;20022;-57
2022/04/04 03:33:18;;;;;;;6.50;4.22;;;-2.60;99.90;;;;;;4990753;28;20030;-57
2022/04/04 03:35:43;;;;;;;6.03;4.18;;;-2.60;99.90;;;;;;4990165;28;20494;-58
2022/04/04 03:38:11;;;;;;;5.03;3.90;;;-2.60;99.90;;;;;;4990185;28;20046;-58
2022/04/04 03:40:37;;;;;;;5.38;4.30;;;-2.60;99.90;;;;;;4990106;28;20105;-59
2022/04/04 03:43:04;;;;;;;9.70;4.70;;;-2.60;99.90;;;;;;4989294;28;20058;-58
2022/04/04 03:45:30;;;;;;;7.43;4.45;;;-2.50;99.90;;;;;;4990991;28;20057;-57
2022/04/04 03:47:57;;;;;;;5.93;3.72;;;-2.50;99.90;;;;;;4989954;28;20117;-58
2022/04/04 03:50:24;;;;;;;7.28;4.00;;;-2.50;99.90;;;;;;4990105;28;20030;-58
2022/04/04 03:52:52;;;;;;;4.93;3.97;;;-2.40;99.90;;;;;;4989258;28;20022;-57
2022/04/04 03:55:22;;;;;;;7.80;3.88;;;-2.40;99.90;;;;;;4989546;28;20486;-57
2022/04/04 03:57:49;;;;;;;4.82;3.78;;;-2.40;99.90;;;;;;4990090;28;20037;-57
2022/04/04 04:00:16;;;;;;;6.55;4.75;;;-2.40;99.90;;;;;;4990181;28;20068;-58
2022/04/04 04:02:42;;;;;;;6.35;3.97;;;-2.40;99.90;;;;;;4989516;28;20030;-56
2022/04/04 04:05:08;;;;;;;4.97;4.47;;;-2.40;99.90;;;;;;4989367;28;20039;-57
2022/04/04 04:07:34;;;;;;;5.68;4.10;;;-2.40;99.90;;;;;;4988887;28;20081;-57
2022/04/04 04:09:59;;;;;;;5.43;3.80;;;-2.40;99.90;;;;;;4988830;28;20034;-58
2022/04/04 04:12:25;;;;;;;4.45;3.42;;;-2.40;99.90;;;;;;4990047;28;20019;-59
2022/04/04 04:14:52;;;;;;;6.85;4.72;;;-2.30;99.90;;;;;;4988019;28;20042;-58
2022/04/04 04:17:22;;;;;;;5.78;3.72;;;-2.30;99.90;;;;;;4975773;28;20030;-59
2022/04/04 04:22:32;;;;;;;5.28;3.50;;;-2.30;99.90;;;;;;4988270;28;20097;-56
2022/04/04 04:24:59;;;;;;;5.10;4.03;;;-2.40;99.90;;;;;;4989563;28;20034;-57
2022/04/04 04:27:24;;;;;;;11.52;4.32;;;-2.40;99.90;;;;;;4989569;28;20459;-58
2022/04/04 04:29:50;;;;;;;7.10;4.47;;;-2.50;99.90;;;;;;4989916;28;20034;-59
2022/04/04 04:32:16;;;;;;;7.78;3.90;;;-2.50;99.90;;;;;;4989216;28;20027;-59
2022/04/04 04:34:46;;;;;;;4.60;4.03;;;-2.60;99.90;;;;;;4989322;28;20034;-58
2022/04/04 04:37:13;;;;;;;6.37;4.07;;;-2.60;99.90;;;;;;4988831;28;20422;-56
2022/04/04 04:39:39;;;;;;;5.43;4.20;;;-2.70;99.90;;;;;;4989521;28;20390;-56
2022/04/04 04:42:05;;;;;;;7.47;5.65;;;-2.70;99.90;;;;;;4988843;28;20113;-57
2022/04/04 04:44:31;;;;;;;7.97;6.38;;;-2.70;99.90;;;;;;4973015;28;20027;-57
2022/04/04 04:46:57;;;;;;;10.85;9.05;;;-2.70;99.90;;;;;;4980271;28;20034;-58
2022/04/04 04:49:25;;;;;;;6.63;4.25;;;-2.60;99.90;;;;;;4988757;28;20026;-58
2022/04/04 04:51:52;;;;;;;7.65;4.03;;;-2.70;99.90;;;;;;4988607;28;20045;-57
2022/04/04 04:54:18;;;;;;;5.88;4.45;;;-2.70;99.90;;;;;;4988271;28;20030;-57
2022/04/04 04:56:43;;;;;;;7.82;4.80;;;-2.80;99.90;;;;;;4989050;28;20030;-57
2022/04/04 04:59:09;;;;;;;8.63;5.95;;;-2.90;99.90;;;;;;4989350;28;20617;-57
2022/04/04 05:01:35;;;;;;;6.60;4.65;;;-3.00;99.90;;;;;;4988500;28;20034;-60
2022/04/04 05:04:01;;;;;;;5.30;4.70;;;-3.00;99.90;;;;;;4989046;28;20026;-58
2022/04/04 05:06:27;;;;;;;6.45;5.35;;;-3.00;99.90;;;;;;4990080;28;20086;-58
2022/04/04 05:08:55;;;;;;;8.50;5.20;;;-3.00;99.90;;;;;;4989163;28;20109;-57
2022/04/04 05:11:21;;;;;;;7.40;4.28;;;-2.90;99.90;;;;;;4988007;28;20034;-57
2022/04/04 05:13:47;;;;;;;5.28;4.78;;;-2.90;99.90;;;;;;4989042;28;20027;-58
2022/04/04 05:16:14;;;;;;;6.32;5.15;;;-2.80;99.90;;;;;;4989403;28;20026;-58
2022/04/04 05:18:43;;;;;;;8.75;4.75;;;-2.80;99.90;;;;;;4988953;28;20110;-57
2022/04/04 05:21:09;;;;;;;7.13;5.65;;;-2.60;99.90;;;;;;4989451;28;20397;-56
2022/04/04 05:23:35;;;;;;;6.47;5.60;;;-2.30;99.90;;;;;;4989297;28;20045;-58
2022/04/04 05:26:01;;;;;;;5.70;4.35;;;-2.00;99.90;;;;;;4988475;28;20742;-58
2022/04/04 05:28:27;;;;;;;9.98;5.93;;;-1.60;99.90;;;;;;4991776;28;20058;-57
2022/04/04 05:30:52;;;;;;;7.82;5.85;;;-1.20;99.90;;;;;;4992155;28;20030;-58
2022/04/04 05:33:18;;;;;;;9.20;4.82;;;-0.80;99.90;;;;;;4992745;28;20026;-58
2022/04/04 05:35:43;;;;;;;7.32;4.15;;;-0.50;99.90;;;;;;4990928;28;20053;-58
2022/04/04 05:38:09;;;;;;;7.40;5.40;;;-0.20;99.90;;;;;;4991885;28;20081;-56
2022/04/04 05:40:35;;;;;;;6.53;5.40;;;0.20;99.90;;;;;;4992243;28;20085;-57
2022/04/04 05:43:01;;;;;;;5.28;4.47;;;0.40;98.00;;;;;;4991825;28;20039;-58
2022/04/04 05:45:27;;;;;;;9.25;5.78;;;0.70;96.70;;;;;;4992764;28;20434;-57
2022/04/04 05:47:53;;;;;;;6.90;6.20;;;0.90;95.40;;;;;;4972976;28;20039;-58
2022/04/04 05:50:18;;;;;;;13.23;6.35;;;1.10;94.50;;;;;;4985500;28;20043;-58
2022/04/04 05:52:44;;;;;;;9.90;7.43;;;1.30;94.30;;;;;;4990729;28;20077;-57
2022/04/04 05:55:10;;;;;;;10.52;5.95;;;1.60;93.10;;;;;;4992263;28;20041;-57
2022/04/04 05:57:40;;;;;;;7.70;6.13;;;1.80;93.00;;;;;;4993074;28;20027;-58
2022/04/04 06:00:11;;;;;;;8.85;4.93;;;1.70;92.20;;;;;;4991797;28;20034;-58
2022/04/04 06:02:38;;;;;;;10.10;6.40;;;1.70;92.40;;;;;;4992077;28;20034;-58
2022/04/04 06:05:08;;;;;;;5.72;4.05;;;2.30;91.90;;;;;;4991740;28;20050;-57
2022/04/04 06:07:38;;;;;;;8.33;4.90;;;3.40;93.80;;;;;;4992134;28;20022;-58
2022/04/04 06:10:06;;;;;;;5.80;4.90;;;4.60;86.30;;;;;;4991752;28;20458;-58
2022/04/04 06:12:34;;;;;;;5.38;4.55;;;5.50;86.00;;;;;;4991926;28;20422;-57
2022/04/04 06:15:00;;;;;;;5.47;4.38;;;6.40;80.30;;;;;;4991580;28;20049;-58
2022/04/04 06:17:26;;;;;;;4.72;3.97;;;7.00;75.00;;;;;;4991760;28;20032;-56
2022/04/04 06:19:52;;;;;;;9.80;3.90;;;7.90;72.10;;;;;;4992084;28;20405;-57
2022/04/04 06:22:18;;;;;;;6.68;4.25;;;8.30;68.90;;;;;;4991191;28;20042;-59
2022/04/04 06:24:43;;;;;;;4.53;4.13;;;9.20;65.00;;;;;;4991801;28;20098;-58
2022/04/04 06:27:09;;;;;;;6.15;4.55;;;9.40;63.40;;;;;;4991715;28;20029;-58
2022/04/04 06:29:35;;;;;;;5.22;4.15;;;9.60;61.00;;;;;;4991468;28;20030;-58
2022/04/04 06:32:01;;;;;;;4.38;3.97;;;9.70;61.10;;;;;;4990998;28;20031;-58
2022/04/04 06:34:27;;;;;;;4.63;4.22;;;9.70;59.60;;;;;;4991584;28;20022;-57
2022/04/04 06:36:53;;;;;;;5.70;4.50;;;9.80;61.10;;;;;;4990542;28;20025;-58
2022/04/04 06:39:19;;;;;;;5.47;4.72;;;10.00;59.30;;;;;;4990573;28;20084;-56
2022/04/04 06:41:45;;;;;;;4.85;4.40;;;9.80;59.80;;;;;;4990982;28;20034;-58
2022/04/04 06:44:11;;;;;;;5.70;4.90;;;10.50;61.10;;;;;;4990751;28;20053;-59
2022/04/04 06:46:37;;;;;;;6.78;6.07;;;10.50;57.90;;;;;;4990890;28;20486;-57
2022/04/04 06:49:07;;;;;;;7.00;6.40;;;11.20;57.40;;;;;;4991137;28;20027;-58
2022/04/04 06:51:33;;;;;;;6.75;6.15;;;10.80;56.50;;;;;;4990815;28;20034;-59
2022/04/04 06:54:00;;;;;;;9.75;7.40;;;9.90;57.90;;;;;;4989991;28;20536;-58
2022/04/04 06:56:25;;;;;;;6.95;6.35;;;9.40;60.10;;;;;;4989614;28;20513;-58
2022/04/04 06:58:52;;;;;;;7.43;6.82;;;9.80;60.90;;;;;;4990567;28;20066;-58
2022/04/04 07:01:18;;;;;;;8.15;7.45;;;10.70;58.80;;;;;;4989842;28;20109;-58
2022/04/04 07:03:44;;;;;;;7.28;6.63;;;12.10;55.50;;;;;;4990781;28;20037;-59
2022/04/04 07:06:10;;;;;;;8.52;7.90;;;13.50;54.20;;;;;;4990271;28;20022;-57
2022/04/04 07:08:36;;;;;;;7.72;7.03;;;14.60;50.20;;;;;;4990079;28;20062;-59
2022/04/04 07:11:03;;;;;;;8.32;7.63;;;15.50;48.40;;;;;;4990058;28;20061;-58
2022/04/04 07:13:31;;;;;;;7.07;6.57;;;16.10;46.30;;;;;;4989902;28;20443;-59
2022/04/04 07:15:57;;;;;;;7.68;6.97;;;16.60;45.90;;;;;;4990834;28;20029;-59
2022/04/04 07:18:23;;;;;;;8.82;8.02;;;16.50;45.50;;;;;;5012560;28;20041;-59
2022/04/04 07:20:48;;;;;;;8.38;7.68;;;17.30;43.60;;;;;;4990090;28;20054;-58
2022/04/04 07:23:14;;;;;;;8.63;7.03;;;17.90;44.70;;;;;;4990201;28;20402;-58
2022/04/04 07:25:40;;;;;;;8.40;7.80;;;18.00;43.50;;;;;;4989899;28;20040;-59
2022/04/04 07:28:06;;;;;;;9.18;8.38;;;17.80;42.60;;;;;;4990507;28;20038;-58
2022/04/04 07:30:31;;;;;;;8.38;7.78;;;18.10;42.90;;;;;;4991066;28;20118;-58
2022/04/04 07:32:57;;;;;;;8.90;8.13;;;18.90;41.80;;;;;;4989505;28;20389;-59
2022/04/04 07:35:22;;;;;;;8.18;7.20;;;19.80;39.10;;;;;;4990448;28;20026;-59
2022/04/04 07:37:50;;;;;;;8.18;7.57;;;20.50;38.30;;;;;;4987995;28;20080;-58
2022/04/04 07:40:17;;;;;;;8.25;7.53;;;20.70;38.00;;;;;;4989137;28;20038;-59
2022/04/04 07:42:45;;;;;;;8.60;7.47;;;20.60;38.50;;;;;;4989505;28;20026;-58
2022/04/04 07:45:13;;;;;;;8.18;7.38;;;21.00;37.40;;;;;;5012270;28;20034;-59
2022/04/04 07:47:40;;;;;;;8.40;7.75;;;21.70;36.20;;;;;;4987900;28;20027;-59
2022/04/04 07:50:08;;;;;;;8.55;7.93;;;22.10;35.60;;;;;;4989553;28;20026;-59
2022/04/04 07:52:34;;;;;;;7.70;7.15;;;22.30;35.10;;;;;;4989212;28;20037;-60
2022/04/04 07:54:59;;;;;;;8.23;7.53;;;22.50;34.90;;;;;;4988882;28;20038;-58
2022/04/04 07:57:25;;;;;;;7.82;7.13;;;22.80;33.70;;;;;;4989925;28;20105;-58
2022/04/04 07:59:51;;;;;;;9.55;8.10;;;23.00;32.90;;;;;;4989107;28;20045;-58
2022/04/04 08:02:18;;;;;;;7.55;6.97;;;22.20;34.00;;;;;;4989381;28;20041;-58
2022/04/04 08:04:43;;;;;;;8.95;8.25;;;22.00;35.00;;;;;;4990108;28;20050;-59
2022/04/04 08:07:09;;;;;;;8.20;7.68;;;21.80;35.00;;;;;;4988587;28;20054;-58
2022/04/04 08:09:34;;;;;;;8.68;8.05;;;21.80;34.20;;;;;;4989055;28;20033;-58
2022/04/04 08:12:00;;;;;;;9.10;8.48;;;21.70;34.60;;;;;;4989031;28;20034;-59
2022/04/04 08:14:26;;;;;;;8.65;7.93;;;21.30;35.40;;;;;;4989759;28;20026;-59
2022/04/04 08:16:52;;;;;;;9.25;8.55;;;21.20;35.90;;;;;;4989258;28;20050;-58
2022/04/04 08:19:18;;;;;;;9.60;8.85;;;21.00;35.60;;;;;;4989933;28;20034;-58
2022/04/04 08:21:44;;;;;;;9.50;8.80;;;20.80;35.40;;;;;;4989464;28;20050;-59
2022/04/04 08:24:16;;;;;;;8.18;7.57;;;21.30;34.90;;;;;;4987774;28;20033;-58
2022/04/04 08:26:42;;;;;;;9.07;8.48;;;21.40;33.60;;;;;;4989110;28;20029;-58
2022/04/04 08:29:11;;;;;;;8.13;7.53;;;21.40;34.20;;;;;;4989166;28;20030;-58
2022/04/04 08:31:40;;;;;;;8.50;7.93;;;21.20;33.40;;;;;;4988817;28;20109;-58
2022/04/04 08:34:06;;;;;;;8.20;7.60;;;21.20;33.30;;;;;;4988762;28;20084;-59
2022/04/04 08:36:32;;;;;;;7.70;7.20;;;21.10;34.10;;;;;;4989916;28;20022;-58
2022/04/04 08:38:58;;;;;;;8.35;7.65;;;21.00;33.50;;;;;;4987723;28;20058;-58
2022/04/04 08:41:25;;;;;;;8.63;7.55;;;20.50;33.50;;;;;;4988981;28;20117;-58
2022/04/04 08:43:54;;;;;;;8.68;8.07;;;19.90;34.80;;;;;;4989300;28;20034;-58
2022/04/04 08:46:22;;;;;;;7.90;7.40;;;20.00;35.40;;;;;;4989089;28;20389;-58
2022/04/04 08:48:48;;;;;;;9.05;8.35;;;19.80;35.00;;;;;;4989527;28;20050;-58
2022/04/04 08:51:14;;;;;;;7.78;7.15;;;19.60;35.30;;;;;;4984580;28;20030;-59
2022/04/04 08:53:40;;;;;;;8.20;7.60;;;19.70;35.30;;;;;;4988917;28;20027;-59
2022/04/04 08:56:09;;;;;;;7.68;7.10;;;20.00;35.10;;;;;;4989054;28;20035;-59
2022/04/04 08:58:36;;;;;;;7.70;7.18;;;20.10;34.00;;;;;;4989324;28;20056;-58
2022/04/04 09:01:01;;;;;;;7.40;6.80;;;19.90;34.40;;;;;;4989000;28;20033;-60
2022/04/04 09:03:31;;;;;;;7.32;6.82;;;20.00;34.00;;;;;;4991504;28;20417;-59
2022/04/04 09:06:03;;;;;;;7.40;6.90;;;19.70;35.10;;;;;;4993191;28;20379;-58
2022/04/04 09:08:30;;;;;;;6.82;6.22;;;19.70;34.30;;;;;;4993088;28;20204;-58
2022/04/04 09:10:57;;;;;;;7.65;7.15;;;19.50;35.60;;;;;;4992977;28;20030;-59
2022/04/04 09:13:27;;;;;;;7.95;7.35;;;19.60;34.70;;;;;;4991876;28;20027;-59
2022/04/04 09:15:56;;;;;;;6.82;6.32;;;19.70;34.70;;;;;;4993826;28;20097;-58
2022/04/04 09:18:36;;;;;;;7.45;6.85;;;19.90;34.20;;;;;;4993047;28;20038;-58
2022/04/04 09:21:29;;;;;;;7.28;6.78;;;20.00;34.20;;;;;;4990380;28;20501;-58
2022/04/04 09:23:56;;;;;;;7.57;6.82;;;19.20;35.30;;;;;;4989523;28;20039;-59
2022/04/04 09:26:43;;;;;;;7.82;7.18;;;18.50;36.60;;;;;;4992510;28;20031;-59
2022/04/04 09:29:22;;;;;;;7.78;6.97;;;18.00;37.00;;;;;;4992687;28;20035;-60
2022/04/04 09:31:55;;;;;;;7.95;7.35;;;17.70;37.50;;;;;;4991228;28;20030;-59
2022/04/04 09:34:21;;;;;;;7.82;7.22;;;17.40;38.40;;;;;;4992698;28;20397;-58
2022/04/04 09:36:47;;;;;;;7.82;7.22;;;17.40;39.10;;;;;;4991991;28;20490;-59
2022/04/04 09:39:15;;;;;;;7.50;6.90;;;17.30;38.40;;;;;;4992693;28;20046;-57
2022/04/04 09:41:41;;;;;;;7.47;6.88;;;17.10;39.00;;;;;;4991658;28;20069;-59
2022/04/04 09:44:08;;;;;;;7.68;7.07;;;17.60;38.70;;;;;;4992809;28;20113;-59
2022/04/04 09:46:40;;;;;;;8.18;7.53;;;17.80;37.90;;;;;;4992399;28;20019;-58
2022/04/04 09:49:06;;;;;;;7.72;7.13;;;17.80;37.90;;;;;;4991838;28;20029;-58
2022/04/04 09:51:39;;;;;;;7.57;6.88;;;17.40;38.60;;;;;;4991902;28;20026;-57
2022/04/04 09:54:07;;;;;;;6.45;5.95;;;16.70;39.00;;;;;;4991923;28;20037;-58
2022/04/04 09:56:32;;;;;;;6.65;6.15;;;15.80;40.00;;;;;;4991988;28;20042;-58
2022/04/04 09:59:02;;;;;;;5.80;5.32;;;15.50;41.30;;;;;;4991268;28;20038;-58
2022/04/04 10:01:30;;;;;;;7.32;6.25;;;15.20;42.10;;;;;;4991011;28;20031;-59
2022/04/04 10:03:57;;;;;;;6.07;5.50;;;15.20;41.80;;;;;;4990709;28;20030;-59
2022/04/04 10:06:28;;;;;;;5.88;5.38;;;15.00;42.00;;;;;;4992927;28;20029;-58
2022/04/04 10:08:57;;;;;;;6.38;5.88;;;14.40;42.70;;;;;;4990587;28;20023;-59
2022/04/04 10:11:23;;;;;;;6.65;6.03;;;13.80;43.30;;;;;;4991417;28;20049;-57
2022/04/04 10:13:52;;;;;;;6.53;5.93;;;13.50;44.40;;;;;;4990558;28;20061;-57
2022/04/04 10:16:18;;;;;;;5.75;5.25;;;13.20;45.80;;;;;;4990316;28;20050;-59
2022/04/04 10:18:44;;;;;;;5.22;4.75;;;13.10;46.90;;;;;;4992326;28;20046;-58
2022/04/04 10:21:11;;;;;;;5.45;5.05;;;13.10;46.70;;;;;;4991071;28;20037;-58
2022/04/04 10:23:39;;;;;;;5.65;4.68;;;13.70;46.20;;;;;;4991873;28;20437;-58
2022/04/04 10:26:07;;;;;;;5.90;4.97;;;14.40;43.70;;;;;;4990634;28;20486;-57
2022/04/04 10:28:35;;;;;;;4.55;4.20;;;14.60;43.30;;;;;;4991151;28;20090;-58
2022/04/04 10:31:13;;;;;;;4.22;3.90;;;14.40;41.40;;;;;;4990859;28;21063;-58
2022/04/04 10:33:39;;;;;;;4.70;4.13;;;13.70;43.00;;;;;;4990234;28;20105;-59
2022/04/04 10:36:20;;;;;;;3.88;3.55;;;13.30;43.00;;;;;;4991359;28;20117;-60
2022/04/04 10:38:45;;;;;;;;;;;12.90;43.50;;;;;;4990909;28;20097;-58
2022/04/04 10:41:14;;;;;;;5.10;4.22;;;12.60;44.50;;;;;;4990872;28;20369;-59
2022/04/04 10:43:45;;;;;;;4.13;3.80;;;12.40;45.60;;;;;;4990553;28;20121;-58
2022/04/04 10:46:12;;;;;;;4.97;4.57;;;12.10;45.20;;;;;;4991436;28;20027;-57
2022/04/04 10:48:39;;;;;;;4.03;3.72;;;11.90;45.40;;;;;;4991224;28;20025;-58
2022/04/04 10:51:30;;;;;;;4.07;3.67;;;11.60;45.80;;;;;;4991140;28;20030;-58
2022/04/04 10:54:00;;;;;;;4.15;3.47;;;11.40;46.60;;;;;;4989946;28;20038;-59
2022/04/04 10:56:39;;;;;;;3.83;3.53;;;11.40;47.00;;;;;;4991105;28;20084;-58
2022/04/04 10:59:20;;;;;;;5.57;3.67;;;11.40;47.50;;;;;;4990086;28;20035;-58
2022/04/04 11:01:55;;;;;;;3.85;3.53;;;11.50;48.10;;;;;;4989236;28;20037;-59
2022/04/04 11:07:37;;;;;;;4.30;3.90;;;11.60;47.90;;;;;;4990884;28;20023;-59
2022/04/04 11:07:39;;;;;;;5.13;3.78;;;11.60;47.30;;;;;;4990803;28;20022;-59
2022/04/04 11:10:09;;;;;;;3.90;3.60;;;11.90;46.90;;;;;;4990222;28;21048;-59
2022/04/04 11:13:02;;;;;;;3.50;3.13;;;12.20;45.40;;;;;;4990134;28;20506;-57
2022/04/04 11:15:42;;;;;;;3.90;3.50;;;12.40;45.10;;;;;;4991229;28;20076;-58
2022/04/04 11:18:08;;;;;;;3.67;3.20;;;12.30;45.10;;;;;;4990388;28;20049;-59
2022/04/04 11:20:36;;;;;;;4.10;3.70;;;12.40;45.50;;;;;;4990180;28;20035;-58
2022/04/04 11:23:08;;;;;;;4.10;3.70;;;12.50;44.50;;;;;;4989747;28;20026;-59
2022/04/04 11:25:35;;;;;;;3.63;3.33;;;12.80;44.80;;;;;;4989851;28;20058;-58
2022/04/04 11:28:01;;;;;;;3.15;2.95;;;13.10;44.60;;;;;;4990377;28;20039;-58
2022/04/04 11:30:27;;;;;;;5.38;3.15;;;13.10;42.80;;;;;;5005885;28;20029;-57
2022/04/04 11:32:54;;;;;;;3.60;3.30;;;13.00;42.60;;;;;;5003935;28;20402;-59
2022/04/04 11:35:25;;;;;;;3.60;3.30;;;13.20;43.70;;;;;;4989861;28;20579;-59
2022/04/04 11:37:52;;;;;;;3.40;3.10;;;13.50;42.50;;;;;;4987624;28;20984;-58
2022/04/04 11:40:29;;;;;;;3.95;3.65;;;13.40;42.50;;;;;;4988960;28;20027;-58
2022/04/04 11:42:57;;;;;;;3.47;3.17;;;13.50;42.70;;;;;;4989262;28;20037;-58
2022/04/04 11:45:25;;;;;;;3.40;3.20;;;13.50;43.80;;;;;;4988700;28;20064;-58
2022/04/04 11:47:53;;;;;;;3.53;3.22;;;13.50;43.00;;;;;;4988971;28;20027;-59
2022/04/04 11:50:22;;;;;;;7.60;3.22;;;13.40;43.00;;;;;;4988768;28;20023;-59
2022/04/04 11:52:51;;;;;;;4.30;3.90;;;13.40;43.00;;;;;;4989050;28;20765;-57
2022/04/04 11:55:19;;;;;;;8.55;3.47;;;13.40;42.60;;;;;;4989947;28;20109;-59
2022/04/04 11:57:46;;;;;;;5.82;3.60;;;13.30;42.70;;;;;;4989877;28;20014;-59
2022/04/04 12:00:23;;;;;;;3.80;3.50;;;13.10;42.90;;;;;;4990898;28;20019;-57
2022/04/04 12:02:49;;;;;;;3.20;3.00;;;13.10;43.50;;;;;;4987253;28;20038;-58
2022/04/04 12:05:21;;;;;;;3.47;3.17;;;13.10;43.60;;;;;;4990204;28;20152;-58
2022/04/04 12:07:48;;;;;;;3.88;3.58;;;13.20;43.70;;;;;;4989853;28;20487;-58
2022/04/04 12:10:16;;;;;;;4.20;3.80;;;13.20;42.50;;;;;;4988836;28;20065;-59
2022/04/04 12:12:43;;;;;;;3.88;3.58;;;13.20;42.70;;;;;;4990240;28;20101;-57
2022/04/04 12:15:09;;;;;;;7.43;6.82;;;13.40;44.00;;;;;;4989085;28;20486;-57
2022/04/04 12:17:35;;;;;;;4.13;3.83;;;13.40;42.90;;;;;;4989799;28;20557;-58
2022/04/04 12:20:08;;;;;;;3.78;3.42;;;13.40;43.00;;;;;;4989262;28;20109;-57
2022/04/04 12:25:18;;;;;;;3.63;3.33;;;13.20;43.10;;;;;;4989264;28;20036;-57
2022/04/04 12:28:04;;;;;;;4.65;4.25;;;12.80;43.90;;;;;;4989717;28;20018;-58
2022/04/04 12:30:37;;;;;;;4.38;3.97;;;12.90;44.60;;;;;;4976035;28;20135;-57
2022/04/04 12:33:13;;;;;;;4.15;3.75;;;12.90;43.30;;;;;;4988314;28;20022;-58
2022/04/04 12:35:44;;;;;;;4.38;3.97;;;12.90;43.20;;;;;;4990004;28;20035;-57
2022/04/04 12:38:22;;;;;;;4.57;4.18;;;12.80;43.40;;;;;;4988175;28;20037;-58
2022/04/04 12:41:15;;;;;;;5.38;4.88;;;12.60;43.00;;;;;;4989751;28;20765;-57
2022/04/04 12:43:43;;;;;;;4.68;4.28;;;12.60;45.30;;;;;;4988200;28;20378;-59
2022/04/04 12:46:32;;;;;;;5.13;4.07;;;12.60;44.60;;;;;;4989990;28;20390;-58
2022/04/04 12:49:17;;;;;;;4.85;4.45;;;12.80;44.80;;;;;;4988382;28;20046;-58
2022/04/04 12:51:59;;;;;;;4.15;3.83;;;12.90;44.10;;;;;;5002385;28;20022;-59
2022/04/04 12:54:39;;;;;;;5.20;4.70;;;13.00;45.10;;;;;;4989001;28;20042;-58
2022/04/04 12:57:07;;;;;;;4.95;4.55;;;13.00;43.30;;;;;;4988074;28;20034;-58
2022/04/04 12:59:49;;;;;;;4.45;4.15;;;12.80;44.60;;;;;;4985628;28;20031;-59